Time;durP1;ratioP1;P1;durP2;ratioP2;P2;SDS_P1;SDS_P2;PMS_P1;PMS_P2;Temp;Humidity;BMP_temperature;BMP_pressure;BME280_temperature;BME280_humidity;BME280_pressure;Samples;Min_cycle;Max_cycle;Signal;HPM_P1;HPM_P2
2021/08/29 00:01:57;;;;;;;3.97;3.25;;;13.40;99.90;;;;;;5050629;28;20033;-76
2021/08/29 00:04:23;;;;;;;3.88;3.22;;;13.40;99.90;;;;;;5053382;28;20033;-75
2021/08/29 00:06:49;;;;;;;5.18;3.63;;;13.40;99.90;;;;;;5053055;28;20029;-76
2021/08/29 00:09:14;;;;;;;3.40;3.10;;;13.40;99.90;;;;;;5052917;28;20385;-75
2021/08/29 00:11:40;;;;;;;4.15;3.30;;;13.40;99.90;;;;;;5085433;28;20032;-76
2021/08/29 00:14:06;;;;;;;4.93;4.18;;;13.40;99.90;;;;;;5051781;28;20055;-75
2021/08/29 00:16:31;;;;;;;4.38;3.97;;;13.40;99.90;;;;;;5052971;28;20021;-76
2021/08/29 00:18:58;;;;;;;4.45;4.05;;;13.40;99.90;;;;;;5052633;28;20033;-75
2021/08/29 00:21:23;;;;;;;5.45;4.22;;;13.40;99.90;;;;;;5055304;28;20080;-74
2021/08/29 00:23:49;;;;;;;5.20;4.70;;;13.40;99.90;;;;;;5051598;28;20052;-75
2021/08/29 00:26:15;;;;;;;4.57;4.13;;;13.40;99.90;;;;;;5052660;28;20034;-75
2021/08/29 00:28:40;;;;;;;6.85;5.43;;;13.40;99.90;;;;;;5052455;28;20029;-75
2021/08/29 00:31:06;;;;;;;6.20;5.50;;;13.30;99.90;;;;;;5051417;28;20373;-76
2021/08/29 00:33:31;;;;;;;5.35;4.85;;;13.40;99.90;;;;;;5051395;28;20045;-76
2021/08/29 00:35:57;;;;;;;6.28;4.40;;;13.40;99.90;;;;;;5052661;28;20025;-76
2021/08/29 00:38:22;;;;;;;6.43;4.88;;;13.40;99.90;;;;;;5051398;28;20032;-76
2021/08/29 00:40:51;;;;;;;5.57;4.65;;;13.40;99.90;;;;;;5084756;28;20025;-77
2021/08/29 00:43:23;;;;;;;5.35;4.70;;;13.40;99.90;;;;;;5053109;28;20391;-75
2021/08/29 00:45:52;;;;;;;4.80;4.30;;;13.40;99.90;;;;;;5055803;28;20382;-76
2021/08/29 00:48:17;;;;;;;8.43;4.10;;;13.40;99.90;;;;;;5052419;28;20039;-78
2021/08/29 00:50:47;;;;;;;7.13;4.30;;;13.40;99.90;;;;;;5050884;28;20041;-76
2021/08/29 00:53:17;;;;;;;4.72;4.32;;;13.40;99.90;;;;;;5050659;28;20115;-77
2021/08/29 00:55:43;;;;;;;3.60;3.30;;;13.40;99.90;;;;;;5050953;28;20036;-77
2021/08/29 00:58:08;;;;;;;4.03;3.67;;;13.50;99.90;;;;;;5051313;28;20025;-77
2021/08/29 01:00:40;;;;;;;4.07;3.05;;;13.50;99.90;;;;;;5050953;28;20036;-78
2021/08/29 01:03:14;;;;;;;4.00;3.30;;;13.50;99.90;;;;;;5052309;28;20025;-77
2021/08/29 01:05:58;;;;;;;5.32;3.30;;;13.50;99.90;;;;;;5050458;28;20368;-78
2021/08/29 01:08:28;;;;;;;4.20;3.08;;;13.50;99.90;;;;;;5051713;28;20043;-77
2021/08/29 01:11:02;;;;;;;3.83;3.53;;;13.50;99.90;;;;;;5050501;28;20075;-77
2021/08/29 01:13:32;;;;;;;3.72;3.33;;;13.60;99.90;;;;;;5050970;28;20267;-77
2021/08/29 01:16:04;;;;;;;4.68;3.25;;;13.60;99.90;;;;;;5051409;28;20096;-77
2021/08/29 01:18:31;;;;;;;4.53;3.28;;;13.60;99.90;;;;;;5051901;28;20115;-77
2021/08/29 01:21:11;;;;;;;3.83;3.20;;;13.60;99.90;;;;;;5050253;28;20385;-77
2021/08/29 01:23:39;;;;;;;5.30;3.90;;;13.60;99.90;;;;;;5052177;28;20021;-77
2021/08/29 01:26:17;;;;;;;4.15;3.75;;;13.60;99.90;;;;;;5051389;28;20106;-77
2021/08/29 01:28:49;;;;;;;3.83;3.53;;;13.60;99.90;;;;;;5051634;28;20028;-76
2021/08/29 01:31:15;;;;;;;3.67;3.38;;;13.50;99.90;;;;;;5051725;28;20024;-77
2021/08/29 01:33:43;;;;;;;4.05;3.22;;;13.50;99.90;;;;;;5052079;28;20041;-77
2021/08/29 01:36:09;;;;;;;3.42;3.13;;;13.50;99.90;;;;;;5051674;28;20021;-77
2021/08/29 01:38:35;;;;;;;4.15;3.78;;;13.50;99.90;;;;;;5051970;28;20111;-78
2021/08/29 01:41:00;;;;;;;4.35;3.90;;;13.50;99.90;;;;;;5051476;28;20403;-76
2021/08/29 01:43:26;;;;;;;4.22;3.83;;;13.50;99.90;;;;;;5045420;28;20076;-77
2021/08/29 01:45:52;;;;;;;9.80;4.70;;;13.50;99.90;;;;;;5064067;28;20057;-77
2021/08/29 01:48:18;;;;;;;4.40;3.75;;;13.50;99.90;;;;;;5052031;28;20025;-78
2021/08/29 01:50:44;;;;;;;4.07;3.67;;;13.50;99.90;;;;;;5051801;28;20104;-78
2021/08/29 01:53:09;;;;;;;6.03;3.65;;;13.50;99.90;;;;;;5051645;28;20028;-78
2021/08/29 01:55:35;;;;;;;3.78;3.47;;;13.40;99.90;;;;;;5083665;28;20029;-77
2021/08/29 01:58:00;;;;;;;4.38;3.70;;;13.50;99.90;;;;;;5050330;28;20036;-77
2021/08/29 02:00:26;;;;;;;4.10;3.65;;;13.50;99.90;;;;;;5051439;28;20484;-77
2021/08/29 02:02:52;;;;;;;4.97;4.00;;;13.50;99.90;;;;;;5050454;28;20036;-77
2021/08/29 02:05:17;;;;;;;4.00;3.70;;;13.40;99.90;;;;;;5050751;28;20032;-77
2021/08/29 02:07:51;;;;;;;7.03;4.22;;;13.40;99.90;;;;;;5050466;28;20029;-78
2021/08/29 02:10:22;;;;;;;4.57;4.18;;;13.40;99.90;;;;;;5084202;28;20040;-79
2021/08/29 02:12:52;;;;;;;4.22;3.80;;;13.40;99.90;;;;;;5054338;28;20469;-76
2021/08/29 02:15:24;;;;;;;4.80;4.10;;;13.40;99.90;;;;;;5087756;28;20056;-77
2021/08/29 02:17:52;;;;;;;4.57;4.18;;;13.40;99.90;;;;;;5055607;28;20025;-77
2021/08/29 02:20:21;;;;;;;4.20;3.90;;;13.40;99.90;;;;;;5055174;28;20025;-76
2021/08/29 02:22:48;;;;;;;5.20;4.22;;;13.40;99.90;;;;;;5055323;28;20047;-77
2021/08/29 02:25:13;;;;;;;4.68;4.20;;;13.40;99.90;;;;;;5058282;28;20514;-78
2021/08/29 02:27:41;;;;;;;4.15;3.75;;;13.40;99.90;;;;;;5054292;28;20056;-77
2021/08/29 02:30:08;;;;;;;4.38;3.97;;;13.50;99.90;;;;;;5053198;28;20032;-78
2021/08/29 02:32:36;;;;;;;5.00;4.32;;;13.40;99.90;;;;;;5052890;28;20033;-78
2021/08/29 02:35:03;;;;;;;4.35;3.95;;;13.40;99.90;;;;;;5051318;28;20392;-78
2021/08/29 02:37:30;;;;;;;6.57;5.18;;;13.40;99.90;;;;;;5049165;28;20025;-78
2021/08/29 02:39:57;;;;;;;4.65;4.20;;;13.40;99.90;;;;;;5050807;28;20025;-78
2021/08/29 02:42:25;;;;;;;4.93;4.47;;;13.40;99.90;;;;;;5051167;28;20105;-78
2021/08/29 02:44:51;;;;;;;5.35;4.68;;;13.40;99.90;;;;;;5053247;28;20068;-78
2021/08/29 02:47:17;;;;;;;5.20;4.70;;;13.40;99.90;;;;;;5053238;28;20037;-78
2021/08/29 02:49:43;;;;;;;5.72;4.72;;;13.40;99.90;;;;;;5050520;28;20025;-78
2021/08/29 02:52:09;;;;;;;5.07;4.15;;;13.40;99.90;;;;;;5050777;28;20035;-77
2021/08/29 02:54:40;;;;;;;4.65;4.18;;;13.40;99.90;;;;;;5049387;28;20031;-77
2021/08/29 02:57:08;;;;;;;;;;;13.40;99.90;;;;;;5050018;28;20027;-77
2021/08/29 02:59:34;;;;;;;4.35;3.95;;;13.40;99.90;;;;;;5050704;28;20458;-78
2021/08/29 03:01:59;;;;;;;4.57;4.18;;;13.30;99.90;;;;;;5050415;28;20037;-78
2021/08/29 03:04:25;;;;;;;5.22;4.72;;;13.40;99.90;;;;;;5050933;28;20033;-78
2021/08/29 03:06:51;;;;;;;6.97;4.70;;;13.30;99.90;;;;;;5050497;28;20031;-77
2021/08/29 03:09:16;;;;;;;6.93;4.53;;;13.30;99.90;;;;;;5050258;28;20039;-77
2021/08/29 03:11:43;;;;;;;5.07;4.25;;;13.30;99.90;;;;;;5050899;28;20028;-79
2021/08/29 03:14:09;;;;;;;4.78;4.28;;;13.30;99.90;;;;;;5049455;28;20032;-78
2021/08/29 03:16:34;;;;;;;5.40;4.18;;;13.30;99.90;;;;;;5051469;28;20025;-78
2021/08/29 03:19:01;;;;;;;5.50;4.38;;;13.30;99.90;;;;;;5052817;28;20032;-79
2021/08/29 03:21:27;;;;;;;5.57;5.05;;;13.30;99.90;;;;;;5052697;28;20056;-78
2021/08/29 03:23:53;;;;;;;5.85;4.63;;;13.30;99.90;;;;;;5054019;28;20059;-77
2021/08/29 03:26:19;;;;;;;5.22;4.72;;;13.30;99.90;;;;;;5052729;28;20094;-78
2021/08/29 03:28:45;;;;;;;5.20;4.10;;;13.30;99.90;;;;;;5053553;28;20492;-78
2021/08/29 03:31:10;;;;;;;9.05;4.68;;;13.30;99.90;;;;;;5054101;28;20051;-79
2021/08/29 03:33:40;;;;;;;5.05;4.55;;;13.20;99.90;;;;;;5053776;28;20036;-78
2021/08/29 03:36:06;;;;;;;6.20;5.60;;;13.20;99.90;;;;;;5045756;28;20023;-78
2021/08/29 03:38:33;;;;;;;5.85;4.72;;;13.20;99.90;;;;;;5054013;28;20068;-78
2021/08/29 03:41:00;;;;;;;5.82;5.20;;;13.20;99.90;;;;;;5053674;28;20025;-78
2021/08/29 03:43:25;;;;;;;5.10;4.60;;;13.20;99.90;;;;;;5052686;28;20051;-78
2021/08/29 03:45:51;;;;;;;5.40;4.20;;;13.20;99.90;;;;;;5063789;28;20535;-79
2021/08/29 03:48:17;;;;;;;5.03;4.53;;;13.10;99.90;;;;;;5052315;28;20458;-77
2021/08/29 03:50:46;;;;;;;4.93;4.45;;;13.20;99.90;;;;;;5052043;28;20028;-79
2021/08/29 03:53:13;;;;;;;6.18;4.72;;;13.20;99.90;;;;;;5053201;28;20028;-77
2021/08/29 03:55:40;;;;;;;5.70;4.95;;;13.20;99.90;;;;;;5053221;28;20036;-77
2021/08/29 03:58:07;;;;;;;4.95;4.53;;;13.20;99.90;;;;;;5052575;28;20087;-78
2021/08/29 04:00:32;;;;;;;7.53;3.97;;;13.20;99.90;;;;;;5043834;28;20078;-77
2021/08/29 04:02:58;;;;;;;5.60;4.22;;;13.20;99.90;;;;;;5053400;28;20041;-78
2021/08/29 04:05:24;;;;;;;5.00;4.50;;;13.10;99.90;;;;;;5052099;28;20083;-78
2021/08/29 04:07:51;;;;;;;4.80;4.30;;;13.10;99.90;;;;;;5053465;28;20032;-79
2021/08/29 04:10:20;;;;;;;4.68;4.10;;;13.10;99.90;;;;;;5052902;28;20036;-79
2021/08/29 04:12:47;;;;;;;4.93;4.43;;;13.10;99.90;;;;;;5053184;28;20017;-78
2021/08/29 04:15:12;;;;;;;4.40;4.00;;;13.10;99.90;;;;;;5053276;28;20025;-77
2021/08/29 04:17:38;;;;;;;4.88;4.47;;;13.00;99.90;;;;;;5053332;28;20025;-78
2021/08/29 04:20:05;;;;;;;5.50;4.07;;;13.00;99.90;;;;;;5053750;28;20033;-78
2021/08/29 04:22:31;;;;;;;5.05;4.50;;;13.00;99.90;;;;;;5051910;28;20115;-78
2021/08/29 04:24:57;;;;;;;5.60;4.35;;;13.00;99.90;;;;;;5053095;28;20067;-79
2021/08/29 04:27:23;;;;;;;4.43;4.03;;;13.00;99.90;;;;;;5052801;28;20086;-77
2021/08/29 04:29:49;;;;;;;5.53;4.47;;;13.00;99.90;;;;;;5058604;28;20106;-77
2021/08/29 04:32:15;;;;;;;4.20;3.70;;;13.00;99.90;;;;;;5053287;28;20492;-78
2021/08/29 04:34:41;;;;;;;4.70;4.28;;;13.00;99.90;;;;;;5051801;28;20399;-78
2021/08/29 04:37:06;;;;;;;4.05;3.75;;;13.00;99.90;;;;;;5053001;28;20120;-79
2021/08/29 04:39:35;;;;;;;5.10;4.60;;;13.00;99.90;;;;;;5052418;28;20113;-78
2021/08/29 04:42:00;;;;;;;5.25;4.20;;;13.00;99.90;;;;;;5051361;28;20024;-78
2021/08/29 04:44:26;;;;;;;4.93;4.00;;;13.00;99.90;;;;;;5047829;28;20099;-78
2021/08/29 04:46:51;;;;;;;4.47;4.07;;;13.10;99.90;;;;;;5052576;28;20566;-78
2021/08/29 04:49:17;;;;;;;18.80;5.20;;;13.00;99.90;;;;;;5052232;28;20488;-78
2021/08/29 04:51:42;;;;;;;4.45;4.05;;;13.00;99.90;;;;;;5051323;28;20067;-77
2021/08/29 04:54:08;;;;;;;6.10;4.22;;;13.00;99.90;;;;;;5052501;28;20021;-78
2021/08/29 04:56:34;;;;;;;4.63;4.22;;;13.10;99.90;;;;;;5052379;28;20044;-78
2021/08/29 04:58:59;;;;;;;4.65;4.25;;;13.10;99.90;;;;;;5052106;28;20060;-78
2021/08/29 05:01:30;;;;;;;4.13;3.72;;;13.10;99.90;;;;;;5052127;28;20020;-79
2021/08/29 05:03:56;;;;;;;;;;;13.10;99.90;;;;;;5051360;28;20021;-78
2021/08/29 05:06:21;;;;;;;6.75;3.67;;;13.10;99.90;;;;;;5051007;28;19908;-79
2021/08/29 05:08:47;;;;;;;4.97;4.53;;;13.10;99.90;;;;;;5050962;28;20021;-77
2021/08/29 05:11:12;;;;;;;4.65;4.13;;;13.10;99.90;;;;;;5051798;28;20021;-78
2021/08/29 05:13:38;;;;;;;4.90;4.25;;;13.10;99.90;;;;;;5052187;28;20100;-78
2021/08/29 05:16:04;;;;;;;5.30;4.10;;;13.10;99.90;;;;;;5050905;28;20021;-78
2021/08/29 05:18:30;;;;;;;9.27;4.85;;;13.10;99.90;;;;;;5051886;28;20107;-77
2021/08/29 05:20:56;;;;;;;4.43;4.03;;;13.10;99.90;;;;;;5050668;28;20021;-78
2021/08/29 05:23:21;;;;;;;6.07;5.22;;;13.10;99.90;;;;;;5051905;28;20079;-79
2021/08/29 05:25:47;;;;;;;3.90;3.53;;;13.00;99.90;;;;;;5051626;28;20460;-79
2021/08/29 05:28:12;;;;;;;4.93;4.43;;;13.00;99.90;;;;;;5051571;28;20396;-78
2021/08/29 05:30:38;;;;;;;4.72;4.32;;;13.00;99.90;;;;;;5051867;28;20020;-79
2021/08/29 05:33:03;;;;;;;4.75;4.05;;;13.00;99.90;;;;;;5050646;28;20404;-80
2021/08/29 05:35:29;;;;;;;5.60;4.43;;;13.00;99.90;;;;;;5051824;28;20443;-78
2021/08/29 05:37:55;;;;;;;4.63;4.05;;;13.00;99.90;;;;;;5051953;28;20482;-78
2021/08/29 05:40:20;;;;;;;4.53;4.13;;;13.00;99.90;;;;;;5051533;28;20487;-79
2021/08/29 05:42:46;;;;;;;4.57;4.05;;;13.00;99.90;;;;;;5047159;28;20025;-79
2021/08/29 05:45:11;;;;;;;4.88;4.10;;;13.10;99.90;;;;;;5058930;28;20515;-78
2021/08/29 05:47:37;;;;;;;4.63;4.00;;;13.00;99.90;;;;;;5058703;28;20028;-78
2021/08/29 05:50:03;;;;;;;6.10;4.40;;;13.00;99.90;;;;;;5050561;28;20028;-78
2021/08/29 05:52:28;;;;;;;4.78;4.05;;;13.00;99.90;;;;;;5051507;28;20035;-77
2021/08/29 05:54:54;;;;;;;3.60;3.28;;;13.10;99.90;;;;;;5050925;28;20032;-78
2021/08/29 05:57:19;;;;;;;4.03;3.72;;;13.10;99.90;;;;;;5050521;28;20295;-78
2021/08/29 05:59:45;;;;;;;4.18;3.65;;;13.00;99.90;;;;;;5052121;28;20063;-79
2021/08/29 06:02:10;;;;;;;3.00;2.80;;;13.00;99.90;;;;;;5051887;28;20033;-78
2021/08/29 06:04:36;;;;;;;3.38;3.08;;;13.00;99.90;;;;;;5051874;28;20448;-78
2021/08/29 06:07:03;;;;;;;3.90;3.60;;;13.00;99.90;;;;;;5050373;28;20392;-77
2021/08/29 06:09:29;;;;;;;2.85;2.65;;;13.00;99.90;;;;;;5049820;28;20491;-79
2021/08/29 06:11:54;;;;;;;3.88;3.03;;;13.00;99.90;;;;;;5050146;28;20162;-78
2021/08/29 06:14:20;;;;;;;4.15;3.83;;;13.10;99.90;;;;;;5051577;28;20051;-78
2021/08/29 06:16:45;;;;;;;3.72;3.42;;;13.10;99.90;;;;;;5049656;28;20048;-77
2021/08/29 06:19:11;;;;;;;3.78;3.47;;;13.10;99.90;;;;;;5051072;28;20396;-78
2021/08/29 06:21:37;;;;;;;3.85;3.50;;;13.10;99.90;;;;;;5053381;28;20427;-79
2021/08/29 06:24:02;;;;;;;4.75;4.30;;;13.20;99.90;;;;;;5051512;28;20283;-78
2021/08/29 06:26:28;;;;;;;4.47;3.75;;;13.20;99.90;;;;;;5050946;28;20041;-78
2021/08/29 06:28:53;;;;;;;3.78;3.47;;;13.10;99.90;;;;;;5050725;28;20500;-77
2021/08/29 06:31:19;;;;;;;4.20;3.42;;;13.20;99.90;;;;;;5051322;28;20096;-79
2021/08/29 06:33:44;;;;;;;3.67;2.67;;;13.30;99.90;;;;;;5051099;28;20513;-78
2021/08/29 06:36:10;;;;;;;3.05;2.83;;;13.30;99.90;;;;;;5049820;28;20480;-77
2021/08/29 06:38:35;;;;;;;3.05;2.75;;;13.30;99.90;;;;;;5051026;28;20083;-77
2021/08/29 06:41:01;;;;;;;2.40;2.20;;;13.40;99.90;;;;;;5083219;28;20025;-79
2021/08/29 06:43:27;;;;;;;2.15;1.95;;;13.40;99.90;;;;;;5051613;28;20029;-77
2021/08/29 06:45:52;;;;;;;4.93;1.98;;;13.40;99.90;;;;;;5053445;28;20025;-77
2021/08/29 06:48:18;;;;;;;2.40;2.17;;;13.40;99.90;;;;;;5051094;28;20079;-77
2021/08/29 06:50:43;;;;;;;2.47;2.28;;;13.40;99.90;;;;;;5050692;28;20029;-79
2021/08/29 06:53:09;;;;;;;3.53;2.08;;;13.50;99.90;;;;;;5054908;28;20029;-78
2021/08/29 06:55:34;;;;;;;1.70;1.60;;;13.50;99.90;;;;;;5054569;28;20040;-77
2021/08/29 06:58:00;;;;;;;1.90;1.70;;;13.50;99.90;;;;;;5053342;28;20086;-77
2021/08/29 07:00:25;;;;;;;1.80;1.60;;;13.50;99.90;;;;;;5053391;28;20035;-78
2021/08/29 07:02:51;;;;;;;1.27;1.17;;;13.50;99.90;;;;;;5054465;28;20025;-77
2021/08/29 07:05:17;;;;;;;1.50;1.40;;;13.50;99.90;;;;;;5053347;28;20028;-78
2021/08/29 07:07:42;;;;;;;2.35;1.05;;;13.60;99.90;;;;;;5053262;28;20093;-77
2021/08/29 07:10:08;;;;;;;2.20;1.38;;;13.60;99.90;;;;;;5052878;28;20049;-77
2021/08/29 07:12:34;;;;;;;1.52;1.42;;;13.60;99.90;;;;;;5052884;28;20363;-77
2021/08/29 07:14:59;;;;;;;1.55;1.45;;;13.70;99.90;;;;;;5054513;28;20053;-78
2021/08/29 07:17:25;;;;;;;1.40;1.30;;;13.70;99.90;;;;;;5053992;28;20103;-77
2021/08/29 07:19:50;;;;;;;1.58;1.20;;;13.60;99.90;;;;;;5054197;28;20118;-78
2021/08/29 07:22:16;;;;;;;1.25;1.10;;;13.70;99.90;;;;;;5054067;28;20476;-78
2021/08/29 07:24:41;;;;;;;1.15;0.90;;;13.70;99.90;;;;;;5054256;28;20029;-78
2021/08/29 07:27:07;;;;;;;1.20;0.90;;;13.70;99.90;;;;;;5053950;28;20392;-78
2021/08/29 07:29:32;;;;;;;2.42;1.00;;;13.70;99.90;;;;;;5053889;28;20039;-78
2021/08/29 07:31:58;;;;;;;0.77;0.77;;;13.70;99.90;;;;;;5053938;28;20025;-77
2021/08/29 07:34:24;;;;;;;0.70;0.70;;;13.70;99.90;;;;;;5053034;28;20471;-78
2021/08/29 07:36:50;;;;;;;1.00;0.80;;;13.70;99.90;;;;;;5052789;28;20029;-79
2021/08/29 07:39:15;;;;;;;1.38;0.95;;;13.70;99.90;;;;;;5085586;28;20033;-78
2021/08/29 07:41:41;;;;;;;1.88;0.98;;;13.70;99.90;;;;;;5053974;28;20033;-77
2021/08/29 07:44:06;;;;;;;0.82;0.82;;;13.70;99.90;;;;;;5055209;28;20529;-78
2021/08/29 07:46:33;;;;;;;0.88;0.85;;;13.70;99.90;;;;;;5066848;28;20023;-78
2021/08/29 07:48:59;;;;;;;0.80;0.80;;;13.70;99.90;;;;;;5052004;28;20116;-77
2021/08/29 07:51:24;;;;;;;1.30;1.20;;;13.70;99.90;;;;;;5053409;28;20105;-77
2021/08/29 07:53:50;;;;;;;0.70;0.70;;;13.70;99.90;;;;;;5053350;28;20021;-78
2021/08/29 07:56:15;;;;;;;0.77;0.63;;;13.70;99.90;;;;;;5053462;28;20037;-78
2021/08/29 07:58:41;;;;;;;1.10;0.80;;;13.70;99.90;;;;;;5053447;28;20041;-78
2021/08/29 08:01:06;;;;;;;1.30;0.80;;;13.70;99.90;;;;;;5053380;28;20165;-79
2021/08/29 08:03:32;;;;;;;1.02;0.90;;;13.70;99.90;;;;;;5052376;28;20492;-79
2021/08/29 08:05:58;;;;;;;0.65;0.65;;;13.70;99.90;;;;;;5051990;28;20029;-77
2021/08/29 08:08:23;;;;;;;1.73;1.55;;;13.80;99.90;;;;;;5053212;28;20028;-78
2021/08/29 08:10:49;;;;;;;1.25;0.80;;;13.80;99.90;;;;;;5054092;28;20548;-77
2021/08/29 08:13:14;;;;;;;0.77;0.77;;;13.80;99.90;;;;;;5086460;28;20369;-77
2021/08/29 08:15:40;;;;;;;1.88;1.35;;;13.80;99.90;;;;;;5053572;28;20027;-78
2021/08/29 08:18:06;;;;;;;2.03;1.00;;;13.90;99.90;;;;;;5054055;28;20021;-78
2021/08/29 08:20:31;;;;;;;0.70;0.70;;;13.90;99.90;;;;;;5053264;28;20025;-78
2021/08/29 08:22:57;;;;;;;0.80;0.80;;;13.90;99.90;;;;;;5052668;28;20025;-77
2021/08/29 08:25:22;;;;;;;0.65;0.65;;;13.90;99.90;;;;;;5052162;28;20400;-78
2021/08/29 08:27:48;;;;;;;1.42;1.23;;;13.90;99.90;;;;;;5060101;28;20553;-76
2021/08/29 08:30:14;;;;;;;0.70;0.70;;;13.90;99.90;;;;;;5055540;28;20031;-79
2021/08/29 08:32:40;;;;;;;0.50;0.50;;;13.80;99.90;;;;;;5053772;28;20130;-79
2021/08/29 08:35:06;;;;;;;0.60;0.60;;;13.80;99.90;;;;;;5052347;28;20496;-77
2021/08/29 08:37:32;;;;;;;0.52;0.52;;;13.90;99.90;;;;;;5051643;28;20028;-78
2021/08/29 08:39:57;;;;;;;0.45;0.45;;;13.90;99.90;;;;;;5052453;28;20112;-80
2021/08/29 08:42:25;;;;;;;0.70;0.70;;;14.00;99.90;;;;;;5057395;28;20036;-89
2021/08/29 08:44:50;;;;;;;0.75;0.75;;;14.00;99.90;;;;;;5062363;28;20032;-88
2021/08/29 08:47:18;;;;;;;0.60;0.60;;;14.30;99.90;;;;;;5068888;28;20029;-87
2021/08/29 08:49:44;;;;;;;0.90;0.77;;;14.30;99.90;;;;;;5058476;28;20025;-87
2021/08/29 08:52:16;;;;;;;0.60;0.60;;;14.50;99.90;;;;;;5060962;28;20017;-86
2021/08/29 08:54:43;;;;;;;1.08;0.98;;;14.90;99.90;;;;;;5061016;28;20052;-87
2021/08/29 08:57:08;;;;;;;0.82;0.80;;;15.10;99.90;;;;;;5058323;28;20021;-88
2021/08/29 08:59:35;;;;;;;1.05;0.70;;;14.90;99.90;;;;;;5049445;28;20526;-86
2021/08/29 09:02:01;;;;;;;2.92;0.80;;;14.70;99.90;;;;;;5058254;28;20075;-87
2021/08/29 09:04:27;;;;;;;2.33;1.83;;;14.70;99.90;;;;;;5052090;28;20029;-89
2021/08/29 09:06:54;;;;;;;0.60;0.60;;;15.00;99.90;;;;;;5060514;28;20484;-87
2021/08/29 09:09:19;;;;;;;1.88;0.70;;;14.90;99.90;;;;;;5059477;28;20039;-88
2021/08/29 09:11:45;;;;;;;0.70;0.70;;;15.00;99.90;;;;;;5060575;28;20029;-87
2021/08/29 09:14:10;;;;;;;1.00;1.00;;;14.80;99.90;;;;;;5056049;28;20091;-86
2021/08/29 09:16:36;;;;;;;1.02;1.00;;;14.60;99.90;;;;;;5056579;28;20396;-87
2021/08/29 09:19:04;;;;;;;0.80;0.80;;;14.60;99.90;;;;;;5055285;28;20017;-82
2021/08/29 09:21:35;;;;;;;0.80;0.80;;;14.40;99.90;;;;;;5054481;28;20033;-89
2021/08/29 09:24:07;;;;;;;0.82;0.70;;;14.50;99.90;;;;;;5055648;28;20025;-88
2021/08/29 09:26:33;;;;;;;0.70;0.70;;;14.70;99.90;;;;;;5059530;28;20033;-88
2021/08/29 09:28:59;;;;;;;1.40;0.93;;;14.90;99.90;;;;;;5061025;28;20035;-89
2021/08/29 09:31:42;;;;;;;1.35;0.90;;;15.10;99.90;;;;;;5058132;28;20182;-88
2021/08/29 09:34:08;;;;;;;0.90;0.90;;;15.00;99.90;;;;;;5056741;28;20029;-87
2021/08/29 09:36:35;;;;;;;0.95;0.90;;;15.20;99.90;;;;;;5056964;28;20032;-88
2021/08/29 09:39:18;;;;;;;0.90;0.65;;;15.30;99.90;;;;;;5058897;28;20056;-87
2021/08/29 09:41:44;;;;;;;0.60;0.60;;;15.40;99.90;;;;;;5061308;28;20048;-86
2021/08/29 09:44:11;;;;;;;0.98;0.70;;;15.50;99.90;;;;;;5056958;28;20431;-86
2021/08/29 09:46:50;;;;;;;0.77;0.60;;;15.40;99.90;;;;;;5061776;28;20048;-87
2021/08/29 09:49:30;;;;;;;0.77;0.70;;;15.40;99.90;;;;;;5061719;28;20035;-88
2021/08/29 09:51:57;;;;;;;0.60;0.60;;;15.60;99.90;;;;;;5059949;28;20040;-87
2021/08/29 09:54:30;;;;;;;1.55;1.45;;;15.60;99.90;;;;;;5060067;28;20029;-86
2021/08/29 09:56:56;;;;;;;0.60;0.60;;;15.50;99.90;;;;;;5061431;28;20048;-90
2021/08/29 09:59:41;;;;;;;0.70;0.70;;;15.20;99.90;;;;;;5057978;28;20315;-87
2021/08/29 10:02:07;;;;;;;0.98;0.75;;;15.40;99.90;;;;;;5055676;28;20031;-87
2021/08/29 10:04:32;;;;;;;0.70;0.50;;;15.40;99.90;;;;;;5058372;28;20024;-88
2021/08/29 10:07:15;;;;;;;0.60;0.60;;;15.60;99.90;;;;;;5058437;28;20036;-88
2021/08/29 10:09:42;;;;;;;0.90;0.73;;;15.30;99.90;;;;;;5065828;28;20039;-86
2021/08/29 10:12:09;;;;;;;1.00;0.50;;;15.20;99.90;;;;;;5069614;28;20028;-88
2021/08/29 10:14:37;;;;;;;1.45;0.70;;;15.00;99.90;;;;;;5062223;28;20119;-85
2021/08/29 10:17:03;;;;;;;0.80;0.75;;;15.00;99.90;;;;;;5062980;28;20025;-86
2021/08/29 10:19:30;;;;;;;0.55;0.55;;;14.90;99.90;;;;;;5065550;28;20029;-87
2021/08/29 10:21:57;;;;;;;0.50;0.50;;;14.90;99.90;;;;;;5060170;28;20059;-74
2021/08/29 10:24:27;;;;;;;0.55;0.50;;;15.40;99.90;;;;;;5046492;28;20033;-77
2021/08/29 10:26:58;;;;;;;0.60;0.57;;;15.60;99.90;;;;;;5057829;28;20063;-78
2021/08/29 10:29:37;;;;;;;1.50;0.60;;;15.30;99.90;;;;;;5057659;28;20074;-77
2021/08/29 10:32:13;;;;;;;0.85;0.60;;;15.10;99.90;;;;;;5050146;28;20121;-76
2021/08/29 10:34:44;;;;;;;2.17;1.10;;;14.90;99.90;;;;;;5054760;28;20025;-74
2021/08/29 10:37:10;;;;;;;1.05;0.80;;;14.80;99.90;;;;;;5055091;28;20071;-75
2021/08/29 10:39:39;;;;;;;1.00;0.90;;;14.80;99.90;;;;;;5054404;28;20024;-75
2021/08/29 10:42:08;;;;;;;1.15;1.05;;;14.80;99.90;;;;;;5059272;28;20037;-77
2021/08/29 10:44:35;;;;;;;2.25;2.03;;;14.80;99.90;;;;;;5056414;28;20036;-78
2021/08/29 10:47:07;;;;;;;2.40;2.13;;;14.80;99.90;;;;;;5057668;28;20025;-77
2021/08/29 10:49:34;;;;;;;2.90;2.70;;;15.10;99.90;;;;;;5056678;28;20036;-78
2021/08/29 10:52:07;;;;;;;2.78;2.50;;;15.50;99.90;;;;;;5057227;28;20025;-79
2021/08/29 10:54:33;;;;;;;2.60;2.40;;;15.90;99.90;;;;;;5056020;28;20549;-78
2021/08/29 10:57:29;;;;;;;2.95;2.75;;;16.00;99.90;;;;;;5058147;28;20104;-80
2021/08/29 11:00:07;;;;;;;2.38;2.17;;;16.30;99.90;;;;;;5056889;28;20116;-78
2021/08/29 11:02:47;;;;;;;2.30;2.10;;;16.10;99.90;;;;;;5070514;28;20021;-76
2021/08/29 11:05:49;;;;;;;2.88;2.58;;;16.10;99.90;;;;;;5056864;28;20029;-78
2021/08/29 11:08:28;;;;;;;2.63;2.42;;;16.10;99.90;;;;;;5054577;28;20040;-77
2021/08/29 11:10:55;;;;;;;2.65;2.45;;;16.10;99.90;;;;;;5058946;28;20029;-79
2021/08/29 11:13:31;;;;;;;3.17;2.85;;;16.10;99.90;;;;;;5057957;28;20021;-77
2021/08/29 11:16:09;;;;;;;2.47;2.28;;;16.10;99.90;;;;;;5057586;28;20025;-78
2021/08/29 11:19:00;;;;;;;2.85;2.40;;;16.20;99.90;;;;;;5058583;28;20075;-77
2021/08/29 11:21:45;;;;;;;3.13;2.78;;;16.40;99.90;;;;;;5058637;28;20383;-77
2021/08/29 11:24:34;;;;;;;2.30;2.10;;;16.60;99.90;;;;;;5056406;28;20021;-77
2021/08/29 11:26:59;;;;;;;2.53;2.33;;;16.80;99.90;;;;;;5051194;28;20396;-78
2021/08/29 11:29:40;;;;;;;2.75;2.55;;;16.80;99.90;;;;;;5055040;28;20041;-78
2021/08/29 11:32:32;;;;;;;2.38;2.17;;;17.10;99.90;;;;;;5056326;28;20557;-78
2021/08/29 11:35:45;;;;;;;2.53;2.33;;;17.10;99.90;;;;;;5057469;28;20044;-77
2021/08/29 11:38:18;;;;;;;2.42;2.22;;;17.50;99.90;;;;;;5054203;28;20061;-78
2021/08/29 11:40:49;;;;;;;2.70;2.50;;;17.50;99.90;;;;;;5057496;28;20036;-77
2021/08/29 11:43:28;;;;;;;2.35;2.15;;;17.40;99.90;;;;;;5056499;28;20056;-78
2021/08/29 11:45:57;;;;;;;2.25;2.05;;;17.40;99.90;;;;;;5058016;28;20055;-80
2021/08/29 11:48:26;;;;;;;1.83;1.73;;;17.50;99.90;;;;;;5057918;28;20021;-78
2021/08/29 11:50:52;;;;;;;1.67;1.58;;;17.80;99.90;;;;;;5060302;28;20025;-78
2021/08/29 11:53:18;;;;;;;1.85;1.75;;;17.90;99.90;;;;;;5056770;28;20460;-77
2021/08/29 11:55:47;;;;;;;2.20;2.00;;;17.90;99.90;;;;;;5059068;28;20056;-78
2021/08/29 11:58:20;;;;;;;2.70;2.17;;;17.50;99.90;;;;;;5059521;28;20028;-77
2021/08/29 12:00:53;;;;;;;1.80;1.70;;;17.30;99.90;;;;;;5057588;28;20025;-78
2021/08/29 12:03:31;;;;;;;1.85;1.75;;;17.00;99.90;;;;;;5059135;28;20660;-78
2021/08/29 12:06:25;;;;;;;1.85;1.63;;;16.80;99.90;;;;;;5058493;28;20029;-78
2021/08/29 12:09:15;;;;;;;2.15;1.98;;;16.70;99.90;;;;;;5052567;28;20048;-77
2021/08/29 12:11:41;;;;;;;2.00;1.90;;;16.50;99.90;;;;;;5054514;28;20032;-78
2021/08/29 12:14:17;;;;;;;2.78;2.00;;;16.20;99.90;;;;;;5062182;28;20075;-79
2021/08/29 12:17:12;;;;;;;2.30;2.10;;;16.10;99.90;;;;;;5049398;28;20055;-77
2021/08/29 12:19:43;;;;;;;2.15;1.95;;;16.10;99.90;;;;;;5022909;28;20066;-77
2021/08/29 12:22:11;;;;;;;1.77;1.67;;;16.20;99.90;;;;;;5055104;28;20044;-77
2021/08/29 12:24:39;;;;;;;2.13;1.95;;;16.30;99.90;;;;;;5056140;28;20029;-78
2021/08/29 12:27:15;;;;;;;2.60;2.40;;;16.30;99.90;;;;;;5054665;28;20028;-78
2021/08/29 12:29:50;;;;;;;3.05;2.35;;;16.30;99.90;;;;;;5056036;28;20032;-77
2021/08/29 12:32:24;;;;;;;2.28;2.10;;;16.20;99.90;;;;;;5056002;28;20063;-78
2021/08/29 12:35:01;;;;;;;3.22;2.65;;;16.30;99.90;;;;;;5057502;28;20024;-77
2021/08/29 12:37:29;;;;;;;2.50;2.30;;;16.30;99.90;;;;;;5055048;28;20511;-76
2021/08/29 12:40:06;;;;;;;2.50;2.30;;;16.50;99.90;;;;;;5056745;28;20035;-78
2021/08/29 12:42:34;;;;;;;2.67;2.47;;;16.50;99.90;;;;;;5054507;28;20033;-76
2021/08/29 12:45:04;;;;;;;2.88;2.58;;;16.20;99.90;;;;;;5055760;28;20033;-77
2021/08/29 12:47:33;;;;;;;2.83;2.63;;;16.30;99.90;;;;;;5055634;28;20032;-76
2021/08/29 12:50:00;;;;;;;2.70;2.50;;;16.20;99.90;;;;;;5054170;28;20087;-75
2021/08/29 12:52:42;;;;;;;2.60;2.30;;;16.20;99.90;;;;;;5052984;28;20045;-76
2021/08/29 12:55:20;;;;;;;3.17;2.90;;;16.20;99.90;;;;;;5053451;28;20029;-77